Time;durP1;ratioP1;P1;durP2;ratioP2;P2;SDS_P1;SDS_P2;PMS_P1;PMS_P2;Temp;Humidity;BMP_temperature;BMP_pressure;BME280_temperature;BME280_humidity;BME280_pressure;Samples;Min_cycle;Max_cycle;Signal;HPM_P1;HPM_P2
2021/05/08 00:04:53;;;;;;;;;;;;;;;;;;;;;
2021/05/08 00:09:07;;;;;;;;;;;;;;;;;;;;;
2021/05/08 00:57:14;;;;;;;0.90;0.50;;;;;;;12.56;51.31;99797.16;2610718;73;29134;-81
2021/05/08 01:01:04;;;;;;;0.90;0.60;;;;;;;12.51;51.29;99792.31;2413607;78;25595;-82
2021/05/08 01:16:17;;;;;;;0.70;0.50;;;;;;;12.55;51.44;99814.12;2514213;77;28940;-82
2021/05/08 01:20:45;;;;;;;1.27;0.60;;;;;;;12.55;51.47;99816.30;2583386;74;27387;-79
2021/05/08 01:24:35;;;;;;;0.42;0.40;;;;;;;12.50;51.47;99820.20;2549663;77;26076;-81
2021/05/08 01:32:45;;;;;;;0.70;0.60;;;;;;;12.56;51.53;99823.30;2564699;77;29854;-83
2021/05/08 02:13:13;;;;;;;;;;;;;;;;;;;;;
2021/05/08 02:28:09;;;;;;;1.40;1.00;;;;;;;12.49;51.89;99851.14;2389999;81;27642;-82
2021/05/08 02:32:00;;;;;;;1.20;1.10;;;;;;;12.46;51.88;99873.34;2257081;86;25802;-83
2021/05/08 02:36:57;;;;;;;;;;;;;;;;;;;;;
2021/05/08 02:40:41;;;;;;;2.75;1.10;;;;;;;12.48;52.00;99883.80;2529490;76;25569;-79
2021/05/08 02:44:21;;;;;;;1.25;1.00;;;;;;;12.48;52.01;99884.66;2522555;77;25784;-82
2021/05/08 02:49:04;;;;;;;1.50;1.10;;;;;;;12.50;52.02;99896.46;2546013;76;25786;-80
2021/05/08 02:53:01;;;;;;;3.05;1.20;;;;;;;12.49;52.02;99895.59;2528586;76;25365;-81
2021/05/08 02:56:33;;;;;;;1.42;1.00;;;;;;;12.50;52.06;99905.61;2534976;76;25850;-79
2021/05/08 02:59:54;;;;;;;;;;;;;;;12.50;52.06;99910.41;2502581;76;25634;-80
2021/05/08 03:03:18;;;;;;;1.90;0.90;;;;;;;12.48;52.10;99909.50;2482053;77;25959;-82
2021/05/08 03:07:03;;;;;;;1.85;1.10;;;;;;;12.48;52.12;99919.96;2478400;77;25614;-83
2021/05/08 03:10:33;;;;;;;2.65;1.55;;;;;;;12.50;52.16;99913.02;2321273;84;25752;-82
2021/05/08 03:18:16;;;;;;;2.02;1.07;;;;;;;12.52;52.20;99919.16;2113231;92;25960;-83
2021/05/08 03:33:41;;;;;;;2.70;1.20;;;;;;;12.60;52.24;99944.05;2453733;79;29010;-83
2021/05/08 03:48:28;;;;;;;;;;;;;;;;;;;;;
2021/05/08 04:14:30;;;;;;;1.47;1.20;;;;;;;12.65;52.37;99990.70;2413427;79;27215;-82
2021/05/08 04:18:39;;;;;;;;;;;;;;;;;;;;;
2021/05/08 04:33:22;;;;;;;1.73;0.93;;;;;;;12.86;52.33;100010.06;2506623;76;26990;-81
2021/05/08 04:37:24;;;;;;;1.37;0.93;;;;;;;12.88;52.29;100018.81;2449224;79;25435;-81
2021/05/08 05:06:10;;;;;;;;;;;;;;;;;;;;;
2021/05/08 05:10:16;;;;;;;;;;;;;;;;;;;;;
2021/05/08 05:18:49;;;;;;;2.02;1.20;;;;;;;13.22;52.15;100057.46;2178550;90;25934;-81
2021/05/08 05:22:46;;;;;;;1.12;1.02;;;;;;;13.32;52.15;100068.92;2101436;92;25665;-83
2021/05/08 05:45:58;;;;;;;;;;;;;;;;;;;;;
2021/05/08 06:05:02;;;;;;;3.20;1.60;;;;;;;13.71;52.04;100114.59;2578662;75;29886;-82
2021/05/08 06:17:53;;;;;;;5.72;1.95;;;;;;;14.03;52.13;100125.70;2392683;81;25591;-82
2021/05/08 06:47:46;;;;;;;;;;;;;;;;;;;;;
2021/05/08 06:51:55;;;;;;;3.80;1.55;;;;;;;15.97;50.55;100135.27;2319304;83;26077;-83
2021/05/08 06:55:44;;;;;;;1.90;1.20;;;;;;;18.01;49.19;100137.94;2327605;83;25667;-83
2021/05/08 07:15:40;;;;;;;1.62;1.20;;;;;;;17.34;47.85;100168.38;2274118;80;26268;-82
2021/05/08 07:19:12;;;;;;;1.20;1.10;;;;;;;18.10;48.07;100171.27;2350296;83;25787;-81
2021/05/08 07:27:43;;;;;;;1.37;1.27;;;;;;;21.20;45.43;100168.33;2339303;81;25797;-81
2021/05/08 07:31:22;;;;;;;1.55;0.90;;;;;;;21.67;44.19;100174.28;2109303;88;26360;-81
2021/05/08 07:35:02;;;;;;;1.92;1.02;;;;;;;21.50;43.56;100182.66;2074236;92;26333;-80
2021/05/08 07:39:06;;;;;;;2.10;1.30;;;;;;;20.77;43.80;100179.87;2124279;89;25715;-81
2021/05/08 07:53:43;;;;;;;1.32;1.20;;;;;;;20.71;45.01;100194.11;2484581;78;25973;-81
2021/05/08 07:57:51;;;;;;;2.55;0.90;;;;;;;21.42;44.67;100189.91;2340368;83;25755;-83
2021/05/08 08:02:11;;;;;;;1.57;1.15;;;;;;;23.29;43.45;100188.77;2526551;77;28751;-81
2021/05/08 08:05:46;;;;;;;1.82;1.00;;;;;;;24.23;42.03;100207.79;2372455;82;25622;-81
2021/05/08 08:09:26;;;;;;;1.42;1.20;;;;;;;24.68;41.19;100221.29;2370277;83;25710;-82
2021/05/08 08:13:03;;;;;;;0.98;0.82;;;;;;;25.08;40.56;100224.25;2333904;82;25614;-86
2021/05/08 08:16:30;;;;;;;3.80;0.80;;;;;;;24.72;40.30;100212.71;2337827;84;26235;-84
2021/05/08 08:19:54;;;;;;;1.45;0.98;;;;;;;24.47;40.39;100217.63;2314010;84;25857;-82
2021/05/08 08:23:23;;;;;;;1.80;0.90;;;;;;;24.77;40.37;100215.19;2351632;80;25872;-82
2021/05/08 08:26:52;;;;;;;1.10;0.78;;;;;;;24.91;40.10;100220.90;2405733;80;25792;-83
2021/05/08 08:30:14;;;;;;;1.57;0.85;;;;;;;25.98;39.93;100221.08;2323260;83;26267;-83
2021/05/08 08:33:44;;;;;;;1.00;0.90;;;;;;;27.43;38.94;100221.64;2414728;81;25781;-83
2021/05/08 08:37:12;;;;;;;1.60;0.70;;;;;;;28.56;37.87;100233.34;2358739;83;25860;-84
2021/05/08 08:40:33;;;;;;;1.20;0.88;;;;;;;29.60;36.55;100236.16;2373393;82;26099;-83
2021/05/08 08:44:22;;;;;;;1.22;0.80;;;;;;;30.50;35.35;100239.31;2376806;83;25373;-83
2021/05/08 08:47:46;;;;;;;1.30;0.82;;;;;;;30.50;34.62;100248.24;2386960;80;25604;-83
2021/05/08 08:51:30;;;;;;;1.90;1.07;;;;;;;30.47;34.79;100241.70;2405205;82;26074;-83
2021/05/08 08:54:54;;;;;;;1.17;0.80;;;;;;;31.36;34.17;100262.23;2354809;82;25724;-83
2021/05/08 08:58:33;;;;;;;1.45;0.80;;;;;;;32.12;33.46;100257.63;2361861;83;25576;-83
2021/05/08 09:01:55;;;;;;;1.20;1.10;;;;;;;32.76;32.88;100263.97;2350111;82;25722;-83
2021/05/08 09:09:03;;;;;;;1.57;0.78;;;;;;;33.17;32.31;100266.06;2197375;88;25761;-84
2021/05/08 09:12:48;;;;;;;1.98;0.82;;;;;;;32.96;31.97;100262.58;2466132;78;25262;-84
2021/05/08 09:16:13;;;;;;;1.15;0.90;;;;;;;33.35;32.03;100272.34;2416049;80;25656;-84
2021/05/08 09:20:33;;;;;;;1.55;0.88;;;;;;;33.90;31.80;100264.69;2368421;83;25692;-83
2021/05/08 09:24:00;;;;;;;1.25;0.98;;;;;;;34.25;31.43;100257.94;2369963;81;26307;-83
2021/05/08 09:28:07;;;;;;;3.17;0.85;;;;;;;33.43;31.78;100269.06;2368763;83;25797;-84
2021/05/08 09:31:35;;;;;;;1.60;0.78;;;;;;;32.49;32.35;100257.82;2254808;87;25810;-82
2021/05/08 09:35:27;;;;;;;1.17;0.78;;;;;;;31.33;33.39;100259.73;2255010;87;26390;-82
2021/05/08 09:38:51;;;;;;;2.58;0.75;;;;;;;30.46;34.30;100254.78;2261717;87;25339;-84
2021/05/08 09:46:29;;;;;;;1.42;0.80;;;;;;;29.41;35.86;100251.07;2454790;78;26852;-84
2021/05/08 09:50:03;;;;;;;1.45;0.68;;;;;;;29.48;36.20;100262.33;2340396;84;25820;-83
2021/05/08 10:04:58;;;;;;;1.95;0.80;;;;;;;29.12;36.97;100266.11;2601030;76;25574;-81
2021/05/08 10:08:19;;;;;;;1.62;0.75;;;;;;;28.34;37.63;100260.86;2550504;77;25698;-81
2021/05/08 10:11:47;;;;;;;1.10;0.70;;;;;;;27.68;38.34;100257.48;2523718;77;25795;-82
2021/05/08 10:15:10;;;;;;;0.72;0.72;;;;;;;27.17;39.00;100265.72;2519023;78;25874;-82
2021/05/08 10:18:35;;;;;;;2.27;1.37;;;;;;;26.70;39.66;100260.27;2535505;77;25745;-81
2021/05/08 10:22:10;;;;;;;1.50;1.07;;;;;;;26.40;40.15;100257.11;2276896;85;25730;-82
2021/05/08 10:25:42;;;;;;;1.33;0.80;;;;;;;26.72;40.72;100257.51;2306769;85;25775;-82
2021/05/08 10:40:19;;;;;;;1.40;0.70;;;;;;;26.55;41.30;100256.92;2449716;79;25694;-81
2021/05/08 10:43:54;;;;;;;1.45;0.80;;;;;;;26.60;41.42;100259.80;2441352;79;25586;-81
2021/05/08 10:47:25;;;;;;;0.75;0.70;;;;;;;27.25;41.52;100255.53;2432945;79;25739;-81
2021/05/08 10:51:00;;;;;;;1.37;1.22;;;;;;;27.88;41.33;100257.39;2457326;79;26081;-81
2021/05/08 10:54:57;;;;;;;1.87;0.80;;;;;;;28.39;40.97;100266.42;2454897;79;25421;-81
2021/05/08 11:09:41;;;;;;;2.25;0.90;;;;;;;27.56;41.11;100291.06;2403647;80;30899;-81
2021/05/08 11:13:25;;;;;;;1.25;0.80;;;;;;;27.48;41.36;100286.56;2373240;81;25845;-80
2021/05/08 11:16:57;;;;;;;0.98;0.55;;;;;;;27.36;41.49;100281.78;2346110;82;25771;-81
2021/05/08 11:20:46;;;;;;;1.27;0.60;;;;;;;27.44;41.69;100287.63;2545478;77;25935;-81
2021/05/08 11:24:38;;;;;;;1.30;0.70;;;;;;;27.34;41.75;100272.95;2479806;78;25670;-81
2021/05/08 11:28:15;;;;;;;2.42;0.68;;;;;;;27.18;41.89;100280.85;2462585;78;25649;-81
2021/05/08 11:32:01;;;;;;;2.58;0.68;;;;;;;26.83;42.12;100282.84;2464109;79;25647;-81
2021/05/08 11:35:26;;;;;;;2.00;0.82;;;;;;;26.40;42.48;100278.50;2466368;80;25665;-81
2021/05/08 11:38:47;;;;;;;1.37;0.80;;;;;;;26.19;40.64;100271.39;2463582;80;25522;-82
2021/05/08 11:42:18;;;;;;;;;;;;;;;26.44;40.27;100271.22;2463997;79;25846;-79
2021/05/08 11:45:41;;;;;;;3.72;1.17;;;;;;;26.57;39.63;100265.28;2462123;80;25406;-78
2021/05/08 11:49:07;;;;;;;2.25;0.90;;;;;;;26.90;38.90;100277.19;2417245;81;25751;-82
2021/05/08 11:52:54;;;;;;;1.98;0.90;;;;;;;27.30;37.92;100263.75;2395038;81;25523;-77
2021/05/08 12:00:43;;;;;;;1.98;0.90;;;;;;;27.23;36.19;100274.80;2371099;81;25726;-77
2021/05/08 12:04:24;;;;;;;3.33;1.22;;;;;;;27.09;34.61;100274.94;2381511;82;25714;-79
2021/05/08 12:07:57;;;;;;;3.92;1.15;;;;;;;27.37;33.52;100267.45;2382257;82;25726;-79
2021/05/08 12:11:31;;;;;;;1.92;1.10;;;;;;;27.69;32.79;100264.56;2381663;82;25881;-79
2021/05/08 12:15:15;;;;;;;2.35;0.90;;;;;;;27.85;31.93;100267.39;2379829;82;25774;-80
2021/05/08 12:18:43;;;;;;;1.40;0.82;;;;;;;27.99;31.46;100270.24;2368414;82;26112;-81
2021/05/08 12:22:19;;;;;;;2.20;1.00;;;;;;;27.85;31.12;100271.41;2351720;81;25929;-77
2021/05/08 12:26:06;;;;;;;1.57;0.80;;;;;;;27.65;30.78;100261.17;2367370;81;25597;-79
2021/05/08 12:29:59;;;;;;;3.60;0.70;;;;;;;27.36;30.35;100279.11;2402798;81;25794;-77
2021/05/08 12:33:27;;;;;;;1.95;1.00;;;;;;;27.09;30.13;100263.38;2404525;81;25679;-78
2021/05/08 12:37:12;;;;;;;2.72;1.37;;;;;;;26.90;29.78;100270.06;2402626;82;25750;-79
2021/05/08 12:40:54;;;;;;;1.40;0.70;;;;;;;26.55;29.69;100276.98;2374784;81;25728;-82
2021/05/08 12:44:51;;;;;;;2.08;1.10;;;;;;;26.03;29.67;100278.73;2263594;85;26339;-78
2021/05/08 12:48:40;;;;;;;1.87;0.85;;;;;;;25.61;29.78;100255.95;2234958;88;26151;-80
2021/05/08 12:52:36;;;;;;;1.80;0.90;;;;;;;25.31;29.99;100260.28;2300095;85;25804;-79
2021/05/08 12:56:34;;;;;;;1.60;1.00;;;;;;;25.07;29.80;100260.70;2298049;85;26183;-80
2021/05/08 13:00:16;;;;;;;2.52;1.25;;;;;;;24.98;30.01;100249.93;2295720;85;25708;-79
2021/05/08 13:03:56;;;;;;;1.95;1.00;;;;;;;25.32;29.26;100251.33;2299246;85;25854;-79
2021/05/08 13:07:38;;;;;;;2.92;1.45;;;;;;;25.60;28.98;100248.41;2300876;84;25724;-79
2021/05/08 13:11:04;;;;;;;2.45;0.90;;;;;;;25.64;28.80;100251.36;2313798;83;25831;-80
2021/05/08 13:14:30;;;;;;;3.35;1.00;;;;;;;25.77;28.77;100249.06;2341870;81;26366;-78
2021/05/08 13:17:53;;;;;;;1.47;0.70;;;;;;;25.79;29.05;100251.22;2433876;80;25726;-79
2021/05/08 13:21:16;;;;;;;1.10;0.80;;;;;;;25.66;28.97;100253.52;2437627;80;26178;-81
2021/05/08 13:24:38;;;;;;;0.70;0.68;;;;;;;25.67;28.76;100259.72;2396928;79;26046;-79
2021/05/08 13:28:06;;;;;;;1.30;0.72;;;;;;;25.83;28.39;100251.98;2387953;81;26100;-80
2021/05/08 13:31:36;;;;;;;3.50;0.70;;;;;;;25.71;28.10;100256.45;2393965;79;25723;-79
2021/05/08 13:34:58;;;;;;;2.10;1.02;;;;;;;25.46;27.92;100255.25;2474287;79;25760;-80
2021/05/08 13:38:24;;;;;;;6.37;0.80;;;;;;;25.50;28.03;100261.73;2430340;80;25660;-80
2021/05/08 13:41:46;;;;;;;5.15;0.93;;;;;;;25.52;28.04;100263.02;2430060;80;25623;-79
2021/05/08 13:45:17;;;;;;;2.83;1.17;;;;;;;25.33;27.89;100257.06;2429929;80;25723;-80
2021/05/08 13:48:40;;;;;;;6.20;0.85;;;;;;;25.04;27.94;100258.61;2430938;81;25681;-80
2021/05/08 13:52:09;;;;;;;5.45;1.32;;;;;;;24.89;28.11;100256.94;2264561;86;26486;-80
2021/05/08 13:55:31;;;;;;;1.55;0.90;;;;;;;25.01;28.15;100256.06;2322257;83;26065;-79
2021/05/08 13:59:03;;;;;;;2.52;0.80;;;;;;;25.06;28.33;100252.30;2310724;85;26034;-80
2021/05/08 14:02:36;;;;;;;2.75;0.78;;;;;;;24.89;29.00;100271.61;2325743;84;25791;-79
2021/05/08 14:06:04;;;;;;;2.30;1.20;;;;;;;24.75;29.91;100255.26;2307371;84;25825;-80
2021/05/08 14:09:41;;;;;;;4.47;0.90;;;;;;;24.68;30.55;100263.94;2281723;84;25721;-80
2021/05/08 14:13:16;;;;;;;2.67;0.78;;;;;;;24.66;31.10;100249.78;2276563;86;25839;-80
2021/05/08 14:16:50;;;;;;;2.35;0.88;;;;;;;24.50;31.05;100258.83;2285933;85;25647;-80
2021/05/08 14:20:10;;;;;;;2.80;0.80;;;;;;;24.38;31.39;100263.68;2291768;84;26238;-79
2021/05/08 14:23:46;;;;;;;3.00;0.93;;;;;;;24.34;31.74;100253.59;2320683;84;25909;-79
2021/05/08 14:27:22;;;;;;;2.00;0.75;;;;;;;24.28;31.95;100255.13;2354347;83;25840;-80
2021/05/08 14:31:20;;;;;;;1.10;0.70;;;;;;;24.27;32.37;100247.61;2597218;75;27366;-79
2021/05/08 14:34:46;;;;;;;1.42;0.70;;;;;;;24.19;32.59;100256.31;2557622;77;25657;-79
2021/05/08 14:38:09;;;;;;;2.80;0.80;;;;;;;24.18;33.05;100260.38;2462581;79;25632;-80
2021/05/08 14:41:39;;;;;;;1.80;0.78;;;;;;;24.20;33.37;100263.87;2505916;78;25989;-79
2021/05/08 14:45:10;;;;;;;2.42;0.80;;;;;;;24.26;33.48;100256.97;2463913;80;25716;-78
2021/05/08 14:48:40;;;;;;;4.55;0.80;;;;;;;24.40;33.68;100264.47;2507216;78;25791;-79
2021/05/08 14:52:03;;;;;;;3.52;1.25;;;;;;;24.50;33.80;100275.25;2462814;80;25765;-79
2021/05/08 14:55:36;;;;;;;1.25;0.80;;;;;;;24.55;33.87;100267.98;2507033;78;25590;-81
2021/05/08 14:59:01;;;;;;;1.70;1.30;;;;;;;24.34;34.02;100276.23;2463993;79;25800;-79
2021/05/08 15:02:25;;;;;;;1.20;0.70;;;;;;;24.18;34.38;100281.22;2510719;78;25627;-79
2021/05/08 15:05:56;;;;;;;4.50;0.82;;;;;;;24.18;34.56;100279.02;2459989;80;25639;-79
2021/05/08 15:09:29;;;;;;;1.45;0.60;;;;;;;24.17;34.71;100276.82;2477354;78;29505;-79
2021/05/08 15:12:57;;;;;;;1.80;0.82;;;;;;;24.21;34.86;100279.78;2360119;82;25798;-79
2021/05/08 15:16:21;;;;;;;1.75;1.10;;;;;;;24.20;34.98;100286.51;2373716;83;25716;-79
2021/05/08 15:19:43;;;;;;;1.30;0.78;;;;;;;24.16;35.15;100291.50;2445067;80;25786;-80
2021/05/08 15:23:07;;;;;;;2.40;1.22;;;;;;;24.11;35.21;100285.48;2445608;80;25785;-78
2021/05/08 15:26:37;;;;;;;2.47;1.10;;;;;;;24.09;35.18;100285.98;2444167;80;25729;-78
2021/05/08 15:30:18;;;;;;;1.02;0.60;;;;;;;24.07;35.20;100292.70;2508285;77;25591;-79
2021/05/08 15:33:41;;;;;;;1.92;0.95;;;;;;;23.87;35.25;100300.48;2507446;78;25668;-78
2021/05/08 15:37:15;;;;;;;1.62;0.70;;;;;;;23.69;35.45;100292.61;2509159;78;25816;-81
2021/05/08 15:40:51;;;;;;;2.12;0.80;;;;;;;23.57;35.67;100299.17;2416907;80;25743;-80
2021/05/08 15:44:36;;;;;;;1.37;0.70;;;;;;;23.48;35.87;100302.97;2254690;87;25721;-80
2021/05/08 15:48:24;;;;;;;;;;;;;;;;;;;;;
2021/05/08 15:53:55;;;;;;;2.45;1.00;;;;;;;23.16;36.27;100298.64;2573820;75;25690;-80
2021/05/08 15:57:36;;;;;;;;;;;;;;;;;;;;;
2021/05/08 16:22:56;;;;;;;1.97;0.80;;;;;;;22.38;37.22;100300.80;2341993;78;34288;-80
2021/05/08 16:26:19;;;;;;;2.62;1.10;;;;;;;22.41;37.32;100306.03;2336375;83;25753;-79
2021/05/08 16:29:44;;;;;;;4.35;0.95;;;;;;;22.36;37.35;100302.14;2322789;83;25948;-80
2021/05/08 16:33:08;;;;;;;1.60;0.80;;;;;;;22.23;37.44;100309.14;2333682;83;25701;-80
2021/05/08 16:36:34;;;;;;;2.12;1.17;;;;;;;22.11;37.59;100318.27;2350087;83;25637;-79
2021/05/08 16:40:14;;;;;;;1.30;0.75;;;;;;;21.99;37.81;100326.06;2337754;82;25803;-80
2021/05/08 16:44:55;;;;;;;1.80;0.70;;;;;;;21.88;38.05;100326.78;2543353;76;27874;-81
2021/05/08 16:48:16;;;;;;;1.12;0.70;;;;;;;21.72;38.28;100328.92;2512541;77;25771;-81
2021/05/08 16:51:55;;;;;;;2.22;1.12;;;;;;;21.62;38.50;100328.71;2510818;75;25866;-85
2021/05/08 16:55:18;;;;;;;1.07;0.78;;;;;;;21.52;38.66;100322.73;2501225;77;25690;-76
2021/05/08 16:58:49;;;;;;;1.27;0.82;;;;;;;21.40;38.47;100331.85;2497980;77;25745;-77
2021/05/08 17:02:11;;;;;;;1.80;0.90;;;;;;;21.27;38.19;100331.66;2490571;77;26291;-77
2021/05/08 17:05:43;;;;;;;1.30;1.20;;;;;;;21.16;37.86;100331.89;2450320;79;25802;-78
2021/05/08 17:09:08;;;;;;;1.72;1.00;;;;;;;21.06;37.56;100337.38;2483606;78;25911;-77
2021/05/08 17:12:35;;;;;;;1.52;0.80;;;;;;;20.96;37.28;100338.05;2361998;81;25946;-76
2021/05/08 17:16:03;;;;;;;1.92;0.88;;;;;;;20.85;37.05;100334.70;2384895;81;25665;-77
2021/05/08 17:30:39;;;;;;;1.63;1.03;;;;;;;20.42;36.67;100338.14;2491855;77;38339;-77
2021/05/08 17:34:02;;;;;;;3.35;1.00;;;;;;;20.46;36.56;100343.80;2463197;79;25865;-77
2021/05/08 17:37:24;;;;;;;1.50;0.78;;;;;;;20.41;36.42;100349.16;2463036;80;26171;-79
2021/05/08 17:40:48;;;;;;;2.30;1.20;;;;;;;20.29;36.38;100347.61;2463087;80;25788;-80
2021/05/08 17:44:11;;;;;;;0.72;0.70;;;;;;;20.19;36.39;100352.63;2418996;80;25721;-76
2021/05/08 17:47:33;;;;;;;4.10;1.27;;;;;;;20.05;36.41;100347.56;2389558;82;25536;-77
2021/05/08 17:50:56;;;;;;;2.42;1.15;;;;;;;19.94;36.50;100356.09;2420061;81;25672;-79
2021/05/08 18:05:00;;;;;;;1.67;1.20;;;;;;;19.63;36.81;100366.25;2456568;78;31414;-79
2021/05/08 18:08:25;;;;;;;1.77;1.10;;;;;;;19.49;36.88;100372.14;2420552;81;26366;-77
2021/05/08 18:11:51;;;;;;;4.35;1.20;;;;;;;19.39;36.97;100374.48;2420912;81;25260;-77
2021/05/08 18:15:26;;;;;;;2.92;1.30;;;;;;;19.31;37.04;100382.52;2370916;81;25803;-78
2021/05/08 18:19:05;;;;;;;5.72;1.22;;;;;;;19.27;37.18;100380.78;2614186;74;30880;-79
2021/05/08 18:22:26;;;;;;;2.52;1.32;;;;;;;19.14;37.27;100388.00;2550972;77;25672;-77
2021/05/08 18:25:53;;;;;;;3.90;2.75;;;;;;;19.05;37.33;100392.06;2504190;78;25660;-78
2021/05/08 18:29:15;;;;;;;2.37;1.50;;;;;;;18.97;37.50;100393.92;2474777;78;25741;-77
2021/05/08 18:32:55;;;;;;;3.27;2.10;;;;;;;18.87;37.72;100396.65;2506233;78;25722;-78
2021/05/08 18:36:18;;;;;;;3.58;2.25;;;;;;;18.80;37.97;100401.56;2511985;77;25664;-79
2021/05/08 18:39:45;;;;;;;2.45;1.35;;;;;;;18.73;38.17;100406.48;2490954;78;25672;-78
2021/05/08 18:43:29;;;;;;;;;;;;;;;;;;;;;
2021/05/08 18:46:48;;;;;;;3.45;1.87;;;;;;;18.59;38.40;100414.91;2563484;76;25682;-79
2021/05/08 18:50:17;;;;;;;9.65;3.27;;;;;;;18.51;38.47;100428.64;2539392;77;25892;-79
2021/05/08 18:53:56;;;;;;;3.87;1.77;;;;;;;18.44;38.48;100421.66;2567175;76;25849;-78
2021/05/08 18:57:20;;;;;;;3.90;2.30;;;;;;;18.37;38.54;100419.52;2566744;77;25665;-78
2021/05/08 19:00:55;;;;;;;7.75;2.37;;;;;;;18.30;38.51;100425.28;2543447;77;25375;-78
2021/05/08 19:04:42;;;;;;;4.37;2.47;;;;;;;18.23;38.71;100433.27;2566057;77;25960;-77
2021/05/08 19:08:23;;;;;;;4.45;3.27;;;;;;;18.14;38.82;100429.78;2568500;76;25745;-77
2021/05/08 19:11:47;;;;;;;6.08;3.08;;;;;;;18.09;38.87;100428.05;2568874;76;25656;-78
2021/05/08 19:15:15;;;;;;;5.10;3.00;;;;;;;18.01;39.10;100430.73;2533855;76;25638;-78
2021/05/08 19:18:43;;;;;;;5.03;3.10;;;;;;;17.98;39.22;100435.16;2526723;76;25591;-79
2021/05/08 19:22:06;;;;;;;5.83;3.75;;;;;;;17.94;39.51;100442.22;2562331;76;25587;-76
2021/05/08 19:29:07;;;;;;;4.25;3.15;;;;;;;17.86;39.84;100442.27;2417457;80;25663;-77
2021/05/08 19:43:26;;;;;;;5.95;3.45;;;;;;;17.68;40.57;100444.52;2392655;80;31464;-77
2021/05/08 19:47:07;;;;;;;5.80;3.75;;;;;;;17.59;40.81;100443.23;2221575;86;25785;-77
2021/05/08 19:50:49;;;;;;;6.10;4.00;;;;;;;17.52;41.05;100444.59;2220868;87;25647;-77
2021/05/08 19:54:11;;;;;;;7.28;4.22;;;;;;;17.52;41.05;100444.59;2166711;89;25697;-78
2021/05/08 19:57:33;;;;;;;6.72;4.03;;;;;;;17.40;41.30;100442.86;2249377;87;25982;-78
2021/05/08 20:00:58;;;;;;;9.28;4.05;;;;;;;17.40;41.30;100442.86;2255865;83;25923;-77
2021/05/08 20:04:20;;;;;;;6.22;4.37;;;;;;;17.57;41.71;100474.44;2257074;87;26142;-76
2021/05/08 20:07:53;;;;;;;7.15;4.12;;;;;;;17.58;41.79;100466.95;2256471;87;25733;-77
2021/05/08 20:11:19;;;;;;;6.05;3.62;;;;;;;17.53;41.87;100460.39;2324383;83;25754;-77
2021/05/08 20:14:59;;;;;;;4.70;4.20;;;;;;;17.43;41.88;100446.81;2379908;81;25359;-76
2021/05/08 20:18:23;;;;;;;6.17;4.22;;;;;;;17.56;41.88;100472.69;2374801;83;25680;-78
2021/05/08 20:21:45;;;;;;;9.38;4.65;;;;;;;17.49;41.72;100474.92;2383654;81;25704;-76
2021/05/08 20:25:16;;;;;;;6.87;3.75;;;;;;;17.49;41.72;100474.92;2382467;82;25717;-77
2021/05/08 20:28:41;;;;;;;7.37;4.58;;;;;;;17.45;41.72;100481.95;2381671;81;25685;-77
2021/05/08 20:32:04;;;;;;;8.30;4.75;;;;;;;17.40;41.74;100473.17;2382078;81;25334;-76
2021/05/08 20:35:29;;;;;;;6.05;4.35;;;;;;;17.35;41.68;100477.15;2379849;83;25704;-76
2021/05/08 20:38:51;;;;;;;6.12;4.42;;;;;;;17.30;41.72;100481.98;2380568;81;25653;-82
2021/05/08 20:42:13;;;;;;;7.85;4.75;;;;;;;17.24;41.79;100477.59;2382375;82;25654;-77
2021/05/08 20:45:34;;;;;;;10.85;4.20;;;;;;;17.19;41.96;100480.25;2381656;81;25624;-79
2021/05/08 20:49:01;;;;;;;6.20;4.62;;;;;;;17.14;42.11;100477.17;2381411;81;25644;-77
2021/05/08 20:52:36;;;;;;;4.75;3.80;;;;;;;17.08;42.26;100478.08;2376130;81;25669;-78
2021/05/08 20:55:57;;;;;;;7.37;5.40;;;;;;;17.02;42.47;100484.67;2382592;81;25668;-78
2021/05/08 20:59:20;;;;;;;6.37;4.28;;;;;;;16.98;42.62;100481.16;2383174;81;25936;-77
2021/05/08 21:03:00;;;;;;;5.20;4.28;;;;;;;16.93;42.86;100484.22;2380654;81;25570;-80
2021/05/08 21:06:45;;;;;;;5.75;4.85;;;;;;;16.90;42.93;100471.05;2560330;76;30843;-78
2021/05/08 21:13:54;;;;;;;8.43;4.30;;;;;;;16.77;43.22;100486.42;2491013;79;25856;-81
2021/05/08 21:17:31;;;;;;;5.70;4.40;;;;;;;16.71;43.35;100486.41;2497215;79;25621;-78
2021/05/08 21:20:56;;;;;;;6.25;4.33;;;;;;;16.66;43.48;100485.08;2496062;79;26335;-77
2021/05/08 21:24:19;;;;;;;5.40;4.45;;;;;;;16.62;43.61;100486.40;2496403;79;25721;-78
2021/05/08 21:27:41;;;;;;;4.55;3.77;;;;;;;16.56;43.71;100475.42;2497078;79;25702;-80
2021/05/08 21:31:07;;;;;;;6.03;4.67;;;;;;;16.51;43.82;100479.38;2496590;79;25788;-82
2021/05/08 21:34:35;;;;;;;7.62;4.53;;;;;;;16.46;43.90;100479.80;2436932;80;25702;-79
2021/05/08 21:38:09;;;;;;;8.45;4.30;;;;;;;16.45;43.82;100483.31;2367981;83;25686;-80
2021/05/08 21:41:33;;;;;;;6.17;4.25;;;;;;;16.40;43.90;100481.53;2363216;83;25638;-80
2021/05/08 21:44:55;;;;;;;5.80;4.45;;;;;;;16.34;43.66;100482.43;2369892;83;25600;-80
2021/05/08 21:48:19;;;;;;;7.90;5.60;;;;;;;16.26;43.36;100481.08;2363136;83;25665;-79
2021/05/08 21:51:43;;;;;;;9.60;4.58;;;;;;;16.16;43.17;100483.69;2369386;83;25738;-82
2021/05/08 21:55:05;;;;;;;8.28;6.17;;;;;;;16.08;42.99;100490.25;2363430;83;25715;-83
2021/05/08 21:58:29;;;;;;;7.22;4.97;;;;;;;15.98;42.83;100484.52;2370222;83;25604;-80
2021/05/08 22:01:58;;;;;;;5.58;4.53;;;;;;;15.91;42.72;100484.94;2362138;83;25750;-80
2021/05/08 22:05:29;;;;;;;8.45;5.47;;;;;;;15.80;42.63;100480.96;2351701;83;25647;-79
2021/05/08 22:08:57;;;;;;;5.55;4.75;;;;;;;15.66;42.73;100482.66;2379129;82;25289;-79
2021/05/08 22:13:01;;;;;;;7.33;4.55;;;;;;;15.66;43.05;100485.29;2389963;82;31477;-80
2021/05/08 22:16:25;;;;;;;6.78;4.47;;;;;;;15.61;43.03;100487.41;2317204;84;25665;-81
2021/05/08 22:19:48;;;;;;;5.80;4.33;;;;;;;15.43;42.99;100486.45;2361193;83;25703;-80
2021/05/08 22:23:14;;;;;;;6.53;4.58;;;;;;;15.24;43.03;100493.33;2360939;82;25743;-81
2021/05/08 22:26:38;;;;;;;5.78;4.30;;;;;;;15.14;43.11;100492.83;2357080;83;25656;-81
2021/05/08 22:30:04;;;;;;;5.92;3.77;;;;;;;15.11;43.07;100495.43;2361540;83;25702;-82
2021/05/08 22:33:25;;;;;;;4.90;4.50;;;;;;;15.05;42.95;100498.00;2361556;83;25283;-81
2021/05/08 22:36:56;;;;;;;5.35;4.35;;;;;;;14.95;43.07;100506.68;2362124;83;26405;-84
2021/05/08 22:40:19;;;;;;;4.22;3.27;;;;;;;14.92;43.03;100507.97;2362085;82;25683;-81
2021/05/08 22:43:41;;;;;;;5.85;3.67;;;;;;;14.82;43.01;100512.30;2361943;83;25227;-80
2021/05/08 22:47:33;;;;;;;6.58;3.70;;;;;;;14.69;43.09;100514.36;2361872;83;25658;-81
2021/05/08 22:50:38;;;;;;;5.90;4.03;;;;;;;14.58;43.17;100512.95;2403504;81;25234;-80
2021/05/08 22:54:00;;;;;;;6.10;4.85;;;;;;;14.50;43.24;100515.48;2416522;81;25659;-80
2021/05/08 22:57:23;;;;;;;4.75;4.15;;;;;;;14.45;43.27;100519.80;2416586;81;25670;-81
2021/05/08 23:00:50;;;;;;;5.37;3.87;;;;;;;14.36;43.32;100519.69;2416356;81;25418;-79
2021/05/08 23:04:12;;;;;;;6.67;4.22;;;;;;;14.26;43.45;100512.59;2387149;81;25624;-80
2021/05/08 23:07:34;;;;;;;8.45;4.15;;;;;;;14.18;43.56;100512.52;2416524;81;25629;-80
2021/05/08 23:10:56;;;;;;;8.90;4.95;;;;;;;14.13;43.67;100511.13;2409563;81;25667;-82
2021/05/08 23:14:20;;;;;;;7.75;3.95;;;;;;;14.07;43.72;100512.40;2401784;82;25709;-80
2021/05/08 23:17:42;;;;;;;8.93;5.03;;;;;;;14.03;43.79;100503.15;2401799;82;25715;-80
2021/05/08 23:21:05;;;;;;;7.20;4.55;;;;;;;14.03;43.80;100496.59;2401759;82;25758;-80
2021/05/08 23:24:28;;;;;;;5.55;4.55;;;;;;;13.91;43.87;100502.16;2400797;81;25212;-81
2021/05/08 23:27:49;;;;;;;7.17;4.83;;;;;;;13.82;43.99;100501.16;2401084;81;25673;-81
2021/05/08 23:31:10;;;;;;;8.90;4.80;;;;;;;13.73;44.06;100497.11;2401037;82;25688;-79
2021/05/08 23:34:33;;;;;;;13.18;5.87;;;;;;;13.68;44.09;100499.25;2400635;82;25742;-80
2021/05/08 23:37:55;;;;;;;7.55;5.00;;;;;;;13.61;44.22;100496.54;2401213;81;25526;-80
2021/05/08 23:41:16;;;;;;;9.63;6.00;;;;;;;13.55;44.30;100503.88;2399002;82;25686;-80
2021/05/08 23:44:38;;;;;;;9.70;6.78;;;;;;;13.51;44.33;100501.20;2400366;82;25624;-80
2021/05/08 23:47:59;;;;;;;6.37;5.25;;;;;;;13.45;44.43;100496.75;2400692;81;25639;-81
2021/05/08 23:51:21;;;;;;;7.58;5.70;;;;;;;13.37;44.49;100501.89;2401237;81;25718;-80
2021/05/08 23:54:42;;;;;;;8.85;6.28;;;;;;;13.32;44.55;100499.62;2401194;82;25685;-80